sensor_id;sensor_type;location;lat;lon;timestamp;P1;durP1;ratioP1;P2;durP2;ratioP2
80957;SDS011;70419;42.700;23.316;2023-07-20T08:37:19;15.43;;;3.83;;
80957;SDS011;70419;42.700;23.316;2023-07-20T08:40:28;13.55;;;3.08;;
80957;SDS011;70419;42.700;23.316;2023-07-20T08:42:55;11.60;;;3.13;;
80957;SDS011;70419;42.700;23.316;2023-07-20T08:45:23;11.30;;;3.70;;
80957;SDS011;70419;42.700;23.316;2023-07-20T08:47:54;20.63;;;3.42;;
80957;SDS011;70419;42.700;23.316;2023-07-20T08:50:22;13.38;;;2.90;;
80957;SDS011;70419;42.700;23.316;2023-07-20T08:52:50;13.20;;;3.58;;
80957;SDS011;70419;42.700;23.316;2023-07-20T08:55:19;11.65;;;3.40;;
80957;SDS011;70419;42.700;23.316;2023-07-20T08:57:47;16.60;;;3.60;;
80957;SDS011;70419;42.700;23.316;2023-07-20T09:00:15;14.57;;;4.07;;
80957;SDS011;70419;42.700;23.316;2023-07-20T09:02:45;13.32;;;3.35;;
80957;SDS011;70419;42.700;23.316;2023-07-20T09:05:12;9.63;;;2.90;;
80957;SDS011;70419;42.700;23.316;2023-07-20T09:10:05;13.32;;;3.25;;
80957;SDS011;70419;42.700;23.316;2023-07-20T09:12:34;8.88;;;3.00;;
80957;SDS011;70419;42.700;23.316;2023-07-20T09:15:01;13.45;;;3.50;;
80957;SDS011;70419;42.700;23.316;2023-07-20T09:17:26;8.27;;;2.58;;
80957;SDS011;70419;42.700;23.316;2023-07-20T09:19:52;8.35;;;3.25;;
80957;SDS011;70419;42.700;23.316;2023-07-20T09:22:19;10.45;;;3.13;;
80957;SDS011;70419;42.700;23.316;2023-07-20T09:24:45;9.70;;;3.38;;
80957;SDS011;70419;42.700;23.316;2023-07-20T09:27:11;14.57;;;3.63;;
80957;SDS011;70419;42.700;23.316;2023-07-20T09:29:50;9.38;;;3.05;;
80957;SDS011;70419;42.700;23.316;2023-07-20T09:32:20;10.68;;;3.08;;
80957;SDS011;70419;42.700;23.316;2023-07-20T09:34:47;10.52;;;3.13;;
80957;SDS011;70419;42.700;23.316;2023-07-20T09:37:22;9.75;;;3.45;;
80957;SDS011;70419;42.700;23.316;2023-07-20T09:39:51;9.15;;;3.33;;
80957;SDS011;70419;42.700;23.316;2023-07-20T09:42:18;9.60;;;2.78;;
80957;SDS011;70419;42.700;23.316;2023-07-20T09:44:45;7.22;;;2.63;;
80957;SDS011;70419;42.700;23.316;2023-07-20T09:47:11;9.63;;;3.03;;
80957;SDS011;70419;42.700;23.316;2023-07-20T09:49:40;9.43;;;3.22;;
80957;SDS011;70419;42.700;23.316;2023-07-20T09:52:07;10.80;;;3.13;;
80957;SDS011;70419;42.700;23.316;2023-07-20T09:54:35;8.80;;;2.92;;
80957;SDS011;70419;42.700;23.316;2023-07-20T09:57:03;8.98;;;3.13;;
80957;SDS011;70419;42.700;23.316;2023-07-20T09:59:35;10.13;;;2.92;;
80957;SDS011;70419;42.700;23.316;2023-07-20T10:02:02;11.77;;;3.47;;
80957;SDS011;70419;42.700;23.316;2023-07-20T10:04:36;13.63;;;3.55;;
80957;SDS011;70419;42.700;23.316;2023-07-20T10:07:03;10.82;;;2.72;;
80957;SDS011;70419;42.700;23.316;2023-07-20T10:09:37;7.00;;;2.80;;
80957;SDS011;70419;42.700;23.316;2023-07-20T10:12:05;9.25;;;2.65;;
80957;SDS011;70419;42.700;23.316;2023-07-20T10:14:35;10.55;;;3.10;;
80957;SDS011;70419;42.700;23.316;2023-07-20T10:17:07;7.25;;;2.90;;
80957;SDS011;70419;42.700;23.316;2023-07-20T10:19:47;12.40;;;2.72;;
80957;SDS011;70419;42.700;23.316;2023-07-20T10:22:16;7.65;;;2.80;;
80957;SDS011;70419;42.700;23.316;2023-07-20T10:24:46;8.88;;;3.15;;
80957;SDS011;70419;42.700;23.316;2023-07-20T10:27:16;9.57;;;2.20;;
80957;SDS011;70419;42.700;23.316;2023-07-20T10:29:42;12.88;;;2.75;;
80957;SDS011;70419;42.700;23.316;2023-07-20T10:32:09;14.80;;;2.95;;
80957;SDS011;70419;42.700;23.316;2023-07-20T10:34:35;13.25;;;3.13;;
80957;SDS011;70419;42.700;23.316;2023-07-20T10:37:01;12.05;;;2.70;;
80957;SDS011;70419;42.700;23.316;2023-07-20T10:39:27;8.65;;;2.88;;
80957;SDS011;70419;42.700;23.316;2023-07-20T10:42:09;8.63;;;2.58;;
80957;SDS011;70419;42.700;23.316;2023-07-20T10:44:39;9.30;;;2.33;;
80957;SDS011;70419;42.700;23.316;2023-07-20T10:47:14;7.75;;;2.22;;
80957;SDS011;70419;42.700;23.316;2023-07-20T10:52:39;11.52;;;2.83;;
80957;SDS011;70419;42.700;23.316;2023-07-20T10:55:14;9.88;;;2.40;;
80957;SDS011;70419;42.700;23.316;2023-07-20T10:57:41;19.17;;;2.92;;
80957;SDS011;70419;42.700;23.316;2023-07-20T11:00:10;9.60;;;2.63;;
80957;SDS011;70419;42.700;23.316;2023-07-20T11:02:45;13.00;;;2.85;;
80957;SDS011;70419;42.700;23.316;2023-07-20T11:07:57;8.52;;;2.40;;
80957;SDS011;70419;42.700;23.316;2023-07-20T11:10:22;10.25;;;3.10;;
80957;SDS011;70419;42.700;23.316;2023-07-20T11:16:02;16.33;;;3.22;;
80957;SDS011;70419;42.700;23.316;2023-07-20T11:18:29;12.30;;;2.60;;
80957;SDS011;70419;42.700;23.316;2023-07-20T11:20:58;8.23;;;3.03;;
80957;SDS011;70419;42.700;23.316;2023-07-20T11:23:24;8.02;;;3.38;;
80957;SDS011;70419;42.700;23.316;2023-07-20T11:25:50;10.88;;;3.70;;
80957;SDS011;70419;42.700;23.316;2023-07-20T11:28:16;8.82;;;3.22;;
80957;SDS011;70419;42.700;23.316;2023-07-20T11:30:42;9.48;;;3.38;;
80957;SDS011;70419;42.700;23.316;2023-07-20T11:33:08;7.65;;;3.40;;
80957;SDS011;70419;42.700;23.316;2023-07-20T11:35:35;15.50;;;4.07;;
80957;SDS011;70419;42.700;23.316;2023-07-20T11:38:07;12.45;;;4.50;;
80957;SDS011;70419;42.700;23.316;2023-07-20T11:40:32;11.50;;;3.60;;
80957;SDS011;70419;42.700;23.316;2023-07-20T11:42:58;11.02;;;4.35;;
80957;SDS011;70419;42.700;23.316;2023-07-20T11:45:25;8.93;;;3.72;;
80957;SDS011;70419;42.700;23.316;2023-07-20T11:47:52;10.27;;;3.92;;
80957;SDS011;70419;42.700;23.316;2023-07-20T11:50:18;17.98;;;5.40;;
80957;SDS011;70419;42.700;23.316;2023-07-20T11:52:44;10.73;;;4.90;;
80957;SDS011;70419;42.700;23.316;2023-07-20T11:55:10;12.60;;;4.90;;
80957;SDS011;70419;42.700;23.316;2023-07-20T11:57:37;15.07;;;5.70;;
80957;SDS011;70419;42.700;23.316;2023-07-20T12:00:04;11.57;;;5.90;;
80957;SDS011;70419;42.700;23.316;2023-07-20T12:02:36;7.85;;;5.75;;
80957;SDS011;70419;42.700;23.316;2023-07-20T12:05:04;9.43;;;6.40;;
80957;SDS011;70419;42.700;23.316;2023-07-20T12:10:08;10.85;;;6.35;;
80957;SDS011;70419;42.700;23.316;2023-07-20T12:12:38;8.18;;;5.47;;
80957;SDS011;70419;42.700;23.316;2023-07-20T12:15:39;12.70;;;5.90;;
80957;SDS011;70419;42.700;23.316;2023-07-20T12:18:01;10.85;;;5.35;;
80957;SDS011;70419;42.700;23.316;2023-07-20T12:20:29;8.38;;;5.07;;
80957;SDS011;70419;42.700;23.316;2023-07-20T12:22:59;6.85;;;4.93;;
80957;SDS011;70419;42.700;23.316;2023-07-20T12:28:12;11.07;;;4.78;;
80957;SDS011;70419;42.700;23.316;2023-07-20T12:30:42;11.82;;;4.72;;
80957;SDS011;70419;42.700;23.316;2023-07-20T12:33:09;8.55;;;4.55;;
80957;SDS011;70419;42.700;23.316;2023-07-20T12:35:35;11.68;;;4.70;;
80957;SDS011;70419;42.700;23.316;2023-07-20T12:38:02;9.98;;;4.70;;
80957;SDS011;70419;42.700;23.316;2023-07-20T12:40:27;9.13;;;4.73;;
80957;SDS011;70419;42.700;23.316;2023-07-20T12:42:53;9.18;;;4.93;;
80957;SDS011;70419;42.700;23.316;2023-07-20T12:45:19;11.90;;;4.73;;
80957;SDS011;70419;42.700;23.316;2023-07-20T12:47:46;8.05;;;3.95;;
80957;SDS011;70419;42.700;23.316;2023-07-20T12:50:12;12.37;;;4.77;;
80957;SDS011;70419;42.700;23.316;2023-07-20T12:52:38;9.77;;;4.47;;
80957;SDS011;70419;42.700;23.316;2023-07-20T12:55:08;12.98;;;4.72;;
80957;SDS011;70419;42.700;23.316;2023-07-20T12:57:35;9.30;;;3.95;;
80957;SDS011;70419;42.700;23.316;2023-07-20T13:00:01;11.02;;;4.15;;
80957;SDS011;70419;42.700;23.316;2023-07-20T13:02:29;13.63;;;4.55;;
80957;SDS011;70419;42.700;23.316;2023-07-20T13:04:57;12.45;;;3.90;;
80957;SDS011;70419;42.700;23.316;2023-07-20T13:07:33;10.13;;;4.33;;
80957;SDS011;70419;42.700;23.316;2023-07-20T13:10:00;14.13;;;4.40;;
80957;SDS011;70419;42.700;23.316;2023-07-20T13:14:54;11.40;;;3.80;;
80957;SDS011;70419;42.700;23.316;2023-07-20T13:17:21;10.95;;;3.85;;
80957;SDS011;70419;42.700;23.316;2023-07-20T13:19:47;8.85;;;3.47;;
80957;SDS011;70419;42.700;23.316;2023-07-20T13:22:13;12.77;;;4.05;;
80957;SDS011;70419;42.700;23.316;2023-07-20T13:27:05;8.67;;;3.73;;
80957;SDS011;70419;42.700;23.316;2023-07-20T13:29:31;10.98;;;3.15;;
80957;SDS011;70419;42.700;23.316;2023-07-20T13:31:59;11.45;;;3.25;;
80957;SDS011;70419;42.700;23.316;2023-07-20T13:34:25;9.30;;;3.33;;
80957;SDS011;70419;42.700;23.316;2023-07-20T13:36:51;12.93;;;3.45;;
80957;SDS011;70419;42.700;23.316;2023-07-20T13:39:17;10.23;;;3.55;;
80957;SDS011;70419;42.700;23.316;2023-07-20T13:41:44;11.60;;;3.28;;
80957;SDS011;70419;42.700;23.316;2023-07-20T13:44:11;7.35;;;3.20;;
80957;SDS011;70419;42.700;23.316;2023-07-20T13:46:37;10.48;;;3.30;;
80957;SDS011;70419;42.700;23.316;2023-07-20T13:49:05;10.10;;;3.33;;
80957;SDS011;70419;42.700;23.316;2023-07-20T13:51:30;10.35;;;3.13;;
80957;SDS011;70419;42.700;23.316;2023-07-20T13:53:59;12.35;;;3.75;;
80957;SDS011;70419;42.700;23.316;2023-07-20T13:56:26;16.25;;;3.63;;
80957;SDS011;70419;42.700;23.316;2023-07-20T13:58:52;8.87;;;3.47;;
80957;SDS011;70419;42.700;23.316;2023-07-20T14:01:18;12.48;;;3.33;;
80957;SDS011;70419;42.700;23.316;2023-07-20T14:03:44;10.68;;;3.58;;
80957;SDS011;70419;42.700;23.316;2023-07-20T14:06:09;13.32;;;3.95;;
80957;SDS011;70419;42.700;23.316;2023-07-20T14:08:38;13.90;;;3.63;;
80957;SDS011;70419;42.700;23.316;2023-07-20T14:11:05;9.88;;;3.40;;
80957;SDS011;70419;42.700;23.316;2023-07-20T14:13:31;10.20;;;3.10;;
80957;SDS011;70419;42.700;23.316;2023-07-20T14:15:58;13.25;;;4.05;;
80957;SDS011;70419;42.700;23.316;2023-07-20T14:18:24;7.57;;;2.97;;
80957;SDS011;70419;42.700;23.316;2023-07-20T14:20:50;12.43;;;2.70;;
80957;SDS011;70419;42.700;23.316;2023-07-20T14:23:16;9.05;;;3.00;;
80957;SDS011;70419;42.700;23.316;2023-07-20T14:25:41;10.27;;;2.95;;
80957;SDS011;70419;42.700;23.316;2023-07-20T14:28:07;8.55;;;2.58;;
80957;SDS011;70419;42.700;23.316;2023-07-20T14:30:33;11.35;;;3.28;;
80957;SDS011;70419;42.700;23.316;2023-07-20T14:32:59;8.68;;;3.13;;
80957;SDS011;70419;42.700;23.316;2023-07-20T14:35:25;7.93;;;2.80;;
80957;SDS011;70419;42.700;23.316;2023-07-20T14:37:52;9.15;;;3.40;;
80957;SDS011;70419;42.700;23.316;2023-07-20T14:40:18;18.58;;;4.30;;
80957;SDS011;70419;42.700;23.316;2023-07-20T14:42:43;14.07;;;3.25;;
80957;SDS011;70419;42.700;23.316;2023-07-20T14:45:09;8.27;;;2.78;;
80957;SDS011;70419;42.700;23.316;2023-07-20T14:47:35;10.68;;;3.42;;
80957;SDS011;70419;42.700;23.316;2023-07-20T14:50:01;9.45;;;3.28;;
80957;SDS011;70419;42.700;23.316;2023-07-20T14:52:28;12.38;;;3.42;;
80957;SDS011;70419;42.700;23.316;2023-07-20T14:54:53;14.02;;;3.45;;
80957;SDS011;70419;42.700;23.316;2023-07-20T14:57:20;11.27;;;3.20;;
80957;SDS011;70419;42.700;23.316;2023-07-20T14:59:48;8.43;;;3.25;;
80957;SDS011;70419;42.700;23.316;2023-07-20T15:02:15;13.73;;;3.40;;
80957;SDS011;70419;42.700;23.316;2023-07-20T15:04:50;14.60;;;3.47;;
80957;SDS011;70419;42.700;23.316;2023-07-20T15:07:19;8.45;;;3.10;;
80957;SDS011;70419;42.700;23.316;2023-07-20T15:09:49;8.70;;;2.72;;
80957;SDS011;70419;42.700;23.316;2023-07-20T15:12:15;7.57;;;2.53;;
80957;SDS011;70419;42.700;23.316;2023-07-20T15:14:41;13.38;;;3.85;;
80957;SDS011;70419;42.700;23.316;2023-07-20T15:17:09;9.93;;;2.72;;
80957;SDS011;70419;42.700;23.316;2023-07-20T15:19:35;10.70;;;3.35;;
80957;SDS011;70419;42.700;23.316;2023-07-20T15:22:01;12.73;;;3.63;;
80957;SDS011;70419;42.700;23.316;2023-07-20T15:24:28;10.40;;;3.10;;
80957;SDS011;70419;42.700;23.316;2023-07-20T15:26:54;7.30;;;2.75;;
80957;SDS011;70419;42.700;23.316;2023-07-20T15:29:20;10.40;;;2.97;;
80957;SDS011;70419;42.700;23.316;2023-07-20T15:31:47;9.50;;;2.90;;
80957;SDS011;70419;42.700;23.316;2023-07-20T15:34:13;11.38;;;3.33;;
80957;SDS011;70419;42.700;23.316;2023-07-20T15:36:40;12.00;;;3.25;;
80957;SDS011;70419;42.700;23.316;2023-07-20T15:39:10;8.88;;;2.50;;
80957;SDS011;70419;42.700;23.316;2023-07-20T15:41:36;7.55;;;2.60;;
80957;SDS011;70419;42.700;23.316;2023-07-20T15:44:01;14.23;;;2.50;;
80957;SDS011;70419;42.700;23.316;2023-07-20T15:49:06;10.97;;;3.07;;
80957;SDS011;70419;42.700;23.316;2023-07-20T15:51:32;11.43;;;3.13;;
80957;SDS011;70419;42.700;23.316;2023-07-20T15:54:02;8.88;;;2.90;;
80957;SDS011;70419;42.700;23.316;2023-07-20T15:56:32;10.95;;;2.53;;
80957;SDS011;70419;42.700;23.316;2023-07-20T15:58:58;8.77;;;2.92;;
80957;SDS011;70419;42.700;23.316;2023-07-20T16:01:24;10.95;;;3.05;;
80957;SDS011;70419;42.700;23.316;2023-07-20T16:03:50;9.65;;;2.30;;
80957;SDS011;70419;42.700;23.316;2023-07-20T16:06:15;8.50;;;2.63;;
80957;SDS011;70419;42.700;23.316;2023-07-20T16:08:41;7.85;;;2.55;;
80957;SDS011;70419;42.700;23.316;2023-07-20T16:11:07;7.55;;;2.35;;
80957;SDS011;70419;42.700;23.316;2023-07-20T16:13:33;10.25;;;2.30;;
80957;SDS011;70419;42.700;23.316;2023-07-20T16:15:58;6.88;;;2.38;;
80957;SDS011;70419;42.700;23.316;2023-07-20T16:18:24;9.15;;;3.00;;
80957;SDS011;70419;42.700;23.316;2023-07-20T16:20:50;6.72;;;2.45;;
80957;SDS011;70419;42.700;23.316;2023-07-20T16:23:18;6.95;;;2.05;;
80957;SDS011;70419;42.700;23.316;2023-07-20T16:25:46;5.72;;;2.08;;
80957;SDS011;70419;42.700;23.316;2023-07-20T16:28:13;8.23;;;2.08;;
80957;SDS011;70419;42.700;23.316;2023-07-20T16:30:39;5.35;;;1.65;;
80957;SDS011;70419;42.700;23.316;2023-07-20T16:33:05;10.60;;;2.95;;
80957;SDS011;70419;42.700;23.316;2023-07-20T16:35:36;7.00;;;2.30;;
80957;SDS011;70419;42.700;23.316;2023-07-20T16:38:02;6.82;;;2.38;;
80957;SDS011;70419;42.700;23.316;2023-07-20T16:40:27;5.43;;;2.17;;
80957;SDS011;70419;42.700;23.316;2023-07-20T16:42:56;7.75;;;1.85;;
80957;SDS011;70419;42.700;23.316;2023-07-20T16:45:23;8.32;;;2.20;;
80957;SDS011;70419;42.700;23.316;2023-07-20T16:47:48;5.68;;;2.00;;
80957;SDS011;70419;42.700;23.316;2023-07-20T16:50:14;7.85;;;2.22;;
80957;SDS011;70419;42.700;23.316;2023-07-20T16:52:40;11.40;;;2.30;;
80957;SDS011;70419;42.700;23.316;2023-07-20T16:55:06;8.30;;;2.58;;
80957;SDS011;70419;42.700;23.316;2023-07-20T16:57:33;7.60;;;2.08;;
80957;SDS011;70419;42.700;23.316;2023-07-20T16:59:59;9.60;;;2.53;;
80957;SDS011;70419;42.700;23.316;2023-07-20T17:02:25;7.70;;;2.20;;
80957;SDS011;70419;42.700;23.316;2023-07-20T17:04:51;12.40;;;2.63;;
80957;SDS011;70419;42.700;23.316;2023-07-20T17:07:17;9.02;;;2.05;;
80957;SDS011;70419;42.700;23.316;2023-07-20T17:09:42;9.35;;;2.22;;
80957;SDS011;70419;42.700;23.316;2023-07-20T17:12:08;8.55;;;2.42;;
80957;SDS011;70419;42.700;23.316;2023-07-20T17:14:35;8.50;;;2.50;;
80957;SDS011;70419;42.700;23.316;2023-07-20T17:17:02;5.45;;;2.15;;
80957;SDS011;70419;42.700;23.316;2023-07-20T17:19:29;6.38;;;1.95;;
80957;SDS011;70419;42.700;23.316;2023-07-20T17:21:55;7.43;;;2.33;;
80957;SDS011;70419;42.700;23.316;2023-07-20T17:24:22;9.68;;;2.15;;
80957;SDS011;70419;42.700;23.316;2023-07-20T17:26:48;6.25;;;2.58;;
80957;SDS011;70419;42.700;23.316;2023-07-20T17:29:14;6.10;;;2.17;;
80957;SDS011;70419;42.700;23.316;2023-07-20T17:31:39;3.75;;;1.65;;
80957;SDS011;70419;42.700;23.316;2023-07-20T17:34:06;7.47;;;1.98;;
80957;SDS011;70419;42.700;23.316;2023-07-20T17:36:32;7.47;;;2.20;;
80957;SDS011;70419;42.700;23.316;2023-07-20T17:38:58;9.15;;;2.08;;
80957;SDS011;70419;42.700;23.316;2023-07-20T17:41:23;6.85;;;2.10;;
80957;SDS011;70419;42.700;23.316;2023-07-20T17:43:49;7.68;;;1.98;;
80957;SDS011;70419;42.700;23.316;2023-07-20T17:46:15;7.55;;;2.08;;
80957;SDS011;70419;42.700;23.316;2023-07-20T17:48:41;5.22;;;2.25;;
80957;SDS011;70419;42.700;23.316;2023-07-20T17:51:09;10.43;;;2.35;;
80957;SDS011;70419;42.700;23.316;2023-07-20T17:53:35;8.45;;;2.58;;
80957;SDS011;70419;42.700;23.316;2023-07-20T17:56:00;7.00;;;2.35;;
80957;SDS011;70419;42.700;23.316;2023-07-20T17:58:27;8.35;;;2.50;;
80957;SDS011;70419;42.700;23.316;2023-07-20T18:00:53;6.75;;;2.30;;
80957;SDS011;70419;42.700;23.316;2023-07-20T18:03:19;8.57;;;2.17;;
80957;SDS011;70419;42.700;23.316;2023-07-20T18:05:44;9.25;;;2.85;;
80957;SDS011;70419;42.700;23.316;2023-07-20T18:08:11;10.15;;;3.22;;
80957;SDS011;70419;42.700;23.316;2023-07-20T18:10:38;7.13;;;2.50;;
80957;SDS011;70419;42.700;23.316;2023-07-20T18:13:04;8.82;;;2.65;;
80957;SDS011;70419;42.700;23.316;2023-07-20T18:15:31;9.23;;;2.88;;
80957;SDS011;70419;42.700;23.316;2023-07-20T18:17:57;7.72;;;2.97;;
80957;SDS011;70419;42.700;23.316;2023-07-20T18:20:22;13.00;;;2.80;;
80957;SDS011;70419;42.700;23.316;2023-07-20T18:22:48;8.75;;;2.50;;
80957;SDS011;70419;42.700;23.316;2023-07-20T18:25:14;9.27;;;2.30;;
80957;SDS011;70419;42.700;23.316;2023-07-20T18:27:40;7.28;;;2.17;;
80957;SDS011;70419;42.700;23.316;2023-07-20T18:30:06;9.15;;;2.13;;
80957;SDS011;70419;42.700;23.316;2023-07-20T18:32:32;5.65;;;2.42;;
80957;SDS011;70419;42.700;23.316;2023-07-20T18:34:57;7.53;;;2.28;;
80957;SDS011;70419;42.700;23.316;2023-07-20T18:37:23;7.20;;;2.70;;
80957;SDS011;70419;42.700;23.316;2023-07-20T18:39:49;8.48;;;2.85;;
80957;SDS011;70419;42.700;23.316;2023-07-20T18:42:15;9.20;;;3.10;;
80957;SDS011;70419;42.700;23.316;2023-07-20T18:44:42;10.43;;;2.75;;
80957;SDS011;70419;42.700;23.316;2023-07-20T18:47:08;9.25;;;2.53;;
80957;SDS011;70419;42.700;23.316;2023-07-20T18:49:34;8.73;;;2.97;;
80957;SDS011;70419;42.700;23.316;2023-07-20T18:52:01;9.32;;;2.70;;
80957;SDS011;70419;42.700;23.316;2023-07-20T18:54:30;8.63;;;2.88;;
80957;SDS011;70419;42.700;23.316;2023-07-20T18:56:56;12.77;;;2.40;;
80957;SDS011;70419;42.700;23.316;2023-07-20T18:59:22;7.43;;;2.83;;
80957;SDS011;70419;42.700;23.316;2023-07-20T19:01:48;8.90;;;3.15;;
80957;SDS011;70419;42.700;23.316;2023-07-20T19:04:14;6.75;;;2.42;;
80957;SDS011;70419;42.700;23.316;2023-07-20T19:06:40;8.43;;;3.17;;
80957;SDS011;70419;42.700;23.316;2023-07-20T19:09:05;7.88;;;2.70;;
80957;SDS011;70419;42.700;23.316;2023-07-20T19:11:31;11.15;;;3.58;;
80957;SDS011;70419;42.700;23.316;2023-07-20T19:13:57;10.25;;;3.00;;
80957;SDS011;70419;42.700;23.316;2023-07-20T19:16:23;4.95;;;2.35;;
80957;SDS011;70419;42.700;23.316;2023-07-20T19:18:51;9.52;;;2.78;;
80957;SDS011;70419;42.700;23.316;2023-07-20T19:21:17;8.88;;;3.38;;
80957;SDS011;70419;42.700;23.316;2023-07-20T19:23:42;8.43;;;3.25;;
80957;SDS011;70419;42.700;23.316;2023-07-20T19:26:09;9.18;;;2.47;;
80957;SDS011;70419;42.700;23.316;2023-07-20T19:28:35;10.77;;;3.33;;
80957;SDS011;70419;42.700;23.316;2023-07-20T19:31:02;12.07;;;3.35;;
80957;SDS011;70419;42.700;23.316;2023-07-20T19:33:28;5.70;;;2.38;;
80957;SDS011;70419;42.700;23.316;2023-07-20T19:35:55;6.88;;;2.53;;
80957;SDS011;70419;42.700;23.316;2023-07-20T19:38:22;8.45;;;2.85;;
80957;SDS011;70419;42.700;23.316;2023-07-20T19:40:49;10.65;;;3.20;;
80957;SDS011;70419;42.700;23.316;2023-07-20T19:43:15;7.45;;;3.17;;
80957;SDS011;70419;42.700;23.316;2023-07-20T19:45:41;9.88;;;3.10;;
80957;SDS011;70419;42.700;23.316;2023-07-20T19:48:07;9.82;;;4.28;;
80957;SDS011;70419;42.700;23.316;2023-07-20T19:50:32;9.25;;;3.92;;
80957;SDS011;70419;42.700;23.316;2023-07-20T19:52:59;12.30;;;3.92;;
80957;SDS011;70419;42.700;23.316;2023-07-20T19:55:25;13.23;;;4.38;;
80957;SDS011;70419;42.700;23.316;2023-07-20T19:57:52;7.38;;;3.67;;
80957;SDS011;70419;42.700;23.316;2023-07-20T20:00:18;9.35;;;4.40;;
80957;SDS011;70419;42.700;23.316;2023-07-20T20:02:45;9.65;;;3.67;;
80957;SDS011;70419;42.700;23.316;2023-07-20T20:05:11;7.97;;;3.30;;
80957;SDS011;70419;42.700;23.316;2023-07-20T20:07:37;11.00;;;3.38;;
80957;SDS011;70419;42.700;23.316;2023-07-20T20:10:03;12.68;;;3.40;;
80957;SDS011;70419;42.700;23.316;2023-07-20T20:12:30;7.55;;;2.92;;
80957;SDS011;70419;42.700;23.316;2023-07-20T20:14:56;8.32;;;3.45;;
80957;SDS011;70419;42.700;23.316;2023-07-20T20:17:22;10.60;;;3.72;;
80957;SDS011;70419;42.700;23.316;2023-07-20T20:19:48;14.02;;;3.97;;
80957;SDS011;70419;42.700;23.316;2023-07-20T20:22:14;12.88;;;4.22;;
80957;SDS011;70419;42.700;23.316;2023-07-20T20:24:40;9.90;;;3.83;;
80957;SDS011;70419;42.700;23.316;2023-07-20T20:27:06;9.63;;;3.63;;
80957;SDS011;70419;42.700;23.316;2023-07-20T20:29:32;11.25;;;3.95;;
80957;SDS011;70419;42.700;23.316;2023-07-20T20:32:01;13.98;;;4.53;;
80957;SDS011;70419;42.700;23.316;2023-07-20T20:34:29;10.93;;;4.20;;
80957;SDS011;70419;42.700;23.316;2023-07-20T20:36:59;8.10;;;4.57;;
80957;SDS011;70419;42.700;23.316;2023-07-20T20:39:26;11.57;;;3.97;;
80957;SDS011;70419;42.700;23.316;2023-07-20T20:41:52;9.02;;;4.22;;
80957;SDS011;70419;42.700;23.316;2023-07-20T20:44:18;14.57;;;4.68;;
80957;SDS011;70419;42.700;23.316;2023-07-20T20:46:48;7.40;;;4.23;;
80957;SDS011;70419;42.700;23.316;2023-07-20T20:49:14;8.57;;;3.75;;
80957;SDS011;70419;42.700;23.316;2023-07-20T20:51:40;7.53;;;3.60;;
80957;SDS011;70419;42.700;23.316;2023-07-20T20:54:10;11.90;;;4.55;;
80957;SDS011;70419;42.700;23.316;2023-07-20T20:59:05;8.23;;;3.10;;
80957;SDS011;70419;42.700;23.316;2023-07-20T21:01:31;10.82;;;3.65;;
80957;SDS011;70419;42.700;23.316;2023-07-20T21:03:57;7.43;;;3.40;;
80957;SDS011;70419;42.700;23.316;2023-07-20T21:06:23;10.68;;;3.47;;
80957;SDS011;70419;42.700;23.316;2023-07-20T21:08:49;8.57;;;4.05;;
80957;SDS011;70419;42.700;23.316;2023-07-20T21:11:15;7.00;;;2.97;;
80957;SDS011;70419;42.700;23.316;2023-07-20T21:13:40;10.27;;;4.70;;
80957;SDS011;70419;42.700;23.316;2023-07-20T21:16:06;7.60;;;3.65;;
80957;SDS011;70419;42.700;23.316;2023-07-20T21:18:32;8.75;;;3.33;;
80957;SDS011;70419;42.700;23.316;2023-07-20T21:20:57;5.65;;;3.13;;
80957;SDS011;70419;42.700;23.316;2023-07-20T21:23:23;6.00;;;3.10;;
80957;SDS011;70419;42.700;23.316;2023-07-20T21:25:49;8.70;;;3.58;;
80957;SDS011;70419;42.700;23.316;2023-07-20T21:28:15;11.00;;;3.55;;
80957;SDS011;70419;42.700;23.316;2023-07-20T21:30:41;6.95;;;3.67;;
80957;SDS011;70419;42.700;23.316;2023-07-20T21:33:07;7.60;;;3.28;;
80957;SDS011;70419;42.700;23.316;2023-07-20T21:35:35;7.72;;;3.72;;
80957;SDS011;70419;42.700;23.316;2023-07-20T21:38:02;7.15;;;3.35;;
80957;SDS011;70419;42.700;23.316;2023-07-20T21:40:28;8.57;;;3.97;;
80957;SDS011;70419;42.700;23.316;2023-07-20T21:42:53;10.75;;;4.15;;
80957;SDS011;70419;42.700;23.316;2023-07-20T21:45:19;8.10;;;3.50;;
80957;SDS011;70419;42.700;23.316;2023-07-20T21:47:48;9.50;;;3.63;;
80957;SDS011;70419;42.700;23.316;2023-07-20T21:50:14;9.40;;;4.13;;
80957;SDS011;70419;42.700;23.316;2023-07-20T21:52:40;11.10;;;3.78;;
80957;SDS011;70419;42.700;23.316;2023-07-20T21:55:06;9.23;;;4.03;;
80957;SDS011;70419;42.700;23.316;2023-07-20T21:57:33;9.57;;;3.88;;
80957;SDS011;70419;42.700;23.316;2023-07-20T21:59:59;13.32;;;4.43;;
80957;SDS011;70419;42.700;23.316;2023-07-20T22:02:24;6.80;;;3.83;;
80957;SDS011;70419;42.700;23.316;2023-07-20T22:04:50;12.75;;;4.53;;
80957;SDS011;70419;42.700;23.316;2023-07-20T22:07:17;10.85;;;4.38;;
80957;SDS011;70419;42.700;23.316;2023-07-20T22:09:43;9.45;;;3.67;;
80957;SDS011;70419;42.700;23.316;2023-07-20T22:12:10;10.30;;;4.05;;
80957;SDS011;70419;42.700;23.316;2023-07-20T22:14:40;6.75;;;3.97;;
80957;SDS011;70419;42.700;23.316;2023-07-20T22:17:07;9.18;;;3.80;;
80957;SDS011;70419;42.700;23.316;2023-07-20T22:19:34;9.52;;;4.68;;
80957;SDS011;70419;42.700;23.316;2023-07-20T22:22:00;10.55;;;4.78;;
80957;SDS011;70419;42.700;23.316;2023-07-20T22:24:27;8.60;;;3.83;;
80957;SDS011;70419;42.700;23.316;2023-07-20T22:26:53;10.05;;;4.20;;
80957;SDS011;70419;42.700;23.316;2023-07-20T22:29:19;11.95;;;4.05;;
80957;SDS011;70419;42.700;23.316;2023-07-20T22:31:45;9.48;;;3.83;;
80957;SDS011;70419;42.700;23.316;2023-07-20T22:34:12;8.43;;;3.63;;
80957;SDS011;70419;42.700;23.316;2023-07-20T22:36:38;10.38;;;3.45;;
80957;SDS011;70419;42.700;23.316;2023-07-20T22:39:04;8.80;;;3.80;;
80957;SDS011;70419;42.700;23.316;2023-07-20T22:41:30;7.53;;;3.55;;
80957;SDS011;70419;42.700;23.316;2023-07-20T22:43:56;8.25;;;3.15;;
80957;SDS011;70419;42.700;23.316;2023-07-20T22:46:23;13.00;;;5.38;;
80957;SDS011;70419;42.700;23.316;2023-07-20T22:48:48;12.27;;;5.45;;
80957;SDS011;70419;42.700;23.316;2023-07-20T22:51:14;9.25;;;4.55;;
80957;SDS011;70419;42.700;23.316;2023-07-20T22:53:40;7.88;;;4.15;;
80957;SDS011;70419;42.700;23.316;2023-07-20T22:56:06;9.23;;;4.60;;
80957;SDS011;70419;42.700;23.316;2023-07-20T22:58:32;10.32;;;3.65;;
80957;SDS011;70419;42.700;23.316;2023-07-20T23:00:58;8.35;;;3.50;;
80957;SDS011;70419;42.700;23.316;2023-07-20T23:03:25;8.98;;;4.63;;
80957;SDS011;70419;42.700;23.316;2023-07-20T23:05:51;7.40;;;3.58;;
80957;SDS011;70419;42.700;23.316;2023-07-20T23:08:17;6.82;;;3.30;;
80957;SDS011;70419;42.700;23.316;2023-07-20T23:10:43;10.57;;;3.67;;
80957;SDS011;70419;42.700;23.316;2023-07-20T23:13:09;7.60;;;3.72;;
80957;SDS011;70419;42.700;23.316;2023-07-20T23:15:35;11.27;;;4.20;;
80957;SDS011;70419;42.700;23.316;2023-07-20T23:18:03;9.05;;;4.30;;
80957;SDS011;70419;42.700;23.316;2023-07-20T23:20:29;7.35;;;4.03;;
80957;SDS011;70419;42.700;23.316;2023-07-20T23:22:55;10.68;;;4.43;;
80957;SDS011;70419;42.700;23.316;2023-07-20T23:25:21;14.30;;;4.78;;
80957;SDS011;70419;42.700;23.316;2023-07-20T23:27:47;7.72;;;3.83;;
80957;SDS011;70419;42.700;23.316;2023-07-20T23:30:15;7.00;;;4.20;;